createdAt,value
2017-12-23T00:00:52.875Z,90.60
2017-12-23T00:05:37.347Z,90.90
2017-12-23T00:10:22.686Z,91.20
2017-12-23T00:15:08.184Z,91.20
2017-12-23T00:19:52.596Z,91.70
2017-12-23T00:24:37.153Z,92.00
2017-12-23T00:29:22.198Z,92.10
2017-12-23T00:34:07.148Z,92.50
2017-12-23T00:38:51.583Z,93.00
2017-12-23T00:43:36.048Z,93.30
2017-12-23T00:48:20.467Z,93.50
2017-12-23T00:53:07.244Z,94.00
2017-12-23T00:57:51.643Z,94.00
2017-12-23T01:02:36.087Z,94.30
2017-12-23T01:07:20.500Z,94.30
2017-12-23T01:12:08.206Z,94.40
2017-12-23T01:16:52.679Z,94.50
2017-12-23T01:21:38.079Z,94.50
2017-12-23T01:26:22.522Z,94.60
2017-12-23T01:31:07.004Z,94.60
2017-12-23T01:35:51.405Z,94.50
2017-12-23T01:40:35.797Z,94.30
2017-12-23T01:45:20.231Z,94.10
2017-12-23T01:50:06.711Z,93.90
2017-12-23T01:54:51.095Z,93.60
2017-12-23T01:59:35.440Z,93.30
2017-12-23T02:04:19.806Z,93.20
2017-12-23T02:09:07.036Z,93.10
2017-12-23T02:13:52.440Z,92.80
2017-12-23T02:18:36.711Z,92.80
2017-12-23T02:23:20.987Z,92.70
2017-12-23T02:28:06.889Z,92.60
2017-12-23T02:32:51.254Z,92.40
2017-12-23T02:37:35.629Z,92.50
2017-12-23T02:42:20.032Z,92.50
2017-12-23T02:47:06.554Z,92.60
2017-12-23T02:51:50.919Z,92.60
2017-12-23T02:56:35.257Z,92.60
2017-12-23T03:01:19.617Z,92.70
2017-12-23T03:06:09.101Z,92.80
2017-12-23T03:10:53.923Z,92.90
2017-12-23T03:15:38.257Z,93.10
2017-12-23T03:20:22.550Z,93.20
2017-12-23T03:25:07.156Z,93.50
2017-12-23T03:29:51.507Z,93.50
2017-12-23T03:34:35.831Z,93.50
2017-12-23T03:39:20.182Z,93.60
2017-12-23T03:44:07.919Z,93.50
2017-12-23T03:48:53.043Z,93.50
2017-12-23T03:53:37.412Z,93.50
2017-12-23T03:58:23.411Z,93.60
2017-12-23T04:03:08.556Z,93.50
2017-12-23T04:07:52.895Z,93.40
2017-12-23T04:12:37.874Z,93.20
2017-12-23T04:17:22.311Z,93.10
2017-12-23T04:22:06.748Z,92.90
2017-12-23T04:26:51.836Z,92.90
2017-12-23T04:31:36.132Z,92.80
2017-12-23T04:36:20.432Z,92.90
2017-12-23T04:41:06.402Z,93.00
2017-12-23T04:45:50.726Z,93.10
2017-12-23T04:50:35.003Z,93.00
2017-12-23T04:55:19.306Z,92.90
2017-12-23T05:00:07.653Z,93.00
2017-12-23T05:04:52.526Z,93.00
2017-12-23T05:09:36.931Z,93.00
2017-12-23T05:14:21.263Z,93.00
2017-12-23T05:19:06.934Z,93.10
2017-12-23T05:23:51.350Z,93.10
2017-12-23T05:28:35.667Z,93.20
2017-12-23T05:33:20.478Z,93.20
2017-12-23T05:38:08.154Z,93.10
2017-12-23T05:42:52.419Z,93.20
2017-12-23T05:47:36.716Z,93.10
2017-12-23T05:52:21.051Z,93.10
2017-12-23T05:57:07.746Z,93.10
2017-12-23T06:01:52.823Z,93.10
2017-12-23T06:06:37.107Z,93.10
2017-12-23T06:11:21.351Z,93.10
2017-12-23T06:16:06.878Z,92.90
2017-12-23T06:20:51.136Z,92.90
2017-12-23T06:25:35.426Z,92.80
2017-12-23T06:30:19.730Z,92.80
2017-12-23T06:35:06.620Z,92.60
2017-12-23T06:39:50.987Z,92.70
2017-12-23T06:44:35.258Z,92.60
2017-12-23T06:49:19.587Z,92.60
2017-12-23T06:54:07.772Z,92.60
2017-12-23T06:58:54.451Z,92.60
2017-12-23T07:03:39.069Z,92.40
2017-12-23T07:08:23.585Z,92.40
2017-12-23T07:13:07.975Z,92.50
2017-12-23T07:17:52.575Z,92.50
2017-12-23T07:22:36.895Z,92.70
2017-12-23T07:27:21.228Z,92.80
2017-12-23T07:32:07.584Z,92.90
2017-12-23T07:36:52.226Z,92.80
2017-12-23T07:42:40.145Z,92.60
2017-12-23T07:47:25.012Z,92.60
2017-12-23T07:52:09.410Z,92.50
2017-12-23T07:56:54.852Z,92.30
2017-12-23T08:01:39.295Z,92.10
2017-12-23T08:06:24.837Z,91.80
2017-12-23T08:11:09.328Z,91.70
2017-12-23T08:15:53.761Z,91.40
2017-12-23T08:20:38.291Z,91.00
2017-12-23T08:25:22.776Z,90.60
2017-12-23T08:30:08.299Z,89.20
2017-12-23T08:34:52.770Z,89.20
2017-12-23T08:39:37.364Z,88.80
2017-12-23T08:44:21.628Z,88.60
2017-12-23T08:49:07.087Z,88.70
2017-12-23T08:53:51.372Z,88.30
2017-12-23T08:58:35.689Z,88.10
2017-12-23T09:03:20.007Z,88.10
2017-12-23T09:08:07.825Z,87.40
2017-12-23T09:12:52.210Z,87.50
2017-12-23T09:17:36.693Z,87.40
2017-12-23T09:22:21.003Z,87.10
2017-12-23T09:27:07.434Z,87.00
2017-12-23T09:31:51.816Z,86.50
2017-12-23T09:36:37.030Z,87.30
2017-12-23T09:41:21.939Z,87.30
2017-12-23T09:46:07.403Z,87.20
2017-12-23T09:50:52.013Z,87.00
2017-12-23T09:55:37.847Z,87.50
2017-12-23T10:00:23.194Z,86.50
2017-12-23T10:05:09.972Z,86.50
2017-12-23T10:09:54.956Z,86.40
2017-12-23T10:14:40.061Z,86.30
2017-12-23T10:19:24.354Z,86.20
2017-12-23T10:24:08.747Z,86.40
2017-12-23T10:28:53.163Z,86.30
2017-12-23T10:33:38.032Z,86.70
2017-12-23T10:38:22.410Z,86.80
2017-12-23T10:43:07.756Z,86.60
2017-12-23T10:47:52.067Z,86.50
2017-12-23T10:52:36.457Z,86.20
2017-12-23T10:57:21.568Z,86.20
2017-12-23T11:02:07.490Z,86.40
2017-12-23T11:06:51.800Z,86.50
2017-12-23T11:11:36.127Z,86.60
2017-12-23T11:16:20.415Z,86.60
2017-12-23T11:21:06.980Z,87.00
2017-12-23T11:25:51.310Z,86.20
2017-12-23T11:30:35.594Z,86.20
2017-12-23T11:35:20.021Z,86.00
2017-12-23T11:40:06.866Z,85.60
2017-12-23T11:44:51.279Z,85.60
2017-12-23T11:49:36.372Z,85.40
2017-12-23T11:54:20.841Z,85.00
2017-12-23T11:59:07.142Z,84.90
2017-12-23T12:03:51.483Z,85.40
2017-12-23T12:08:36.090Z,86.00
2017-12-23T12:13:21.355Z,87.10
2017-12-23T12:18:07.985Z,87.90
2017-12-23T12:22:53.338Z,87.70
2017-12-23T12:27:38.454Z,87.50
2017-12-23T12:32:22.831Z,87.50
2017-12-23T12:37:08.511Z,88.80
2017-12-23T12:41:52.824Z,88.20
2017-12-23T12:46:37.754Z,88.10
2017-12-23T12:51:22.269Z,88.70
2017-12-23T12:56:08.502Z,88.60
2017-12-23T13:00:56.350Z,88.90
2017-12-23T13:05:41.555Z,89.50
2017-12-23T13:10:25.935Z,89.40
2017-12-23T13:15:10.357Z,89.50
2017-12-23T13:19:54.781Z,89.10
2017-12-23T13:24:39.234Z,89.50
2017-12-23T13:29:24.676Z,89.40
2017-12-23T13:34:09.734Z,89.10
2017-12-23T13:38:54.685Z,89.30
2017-12-23T13:43:39.335Z,89.10
2017-12-23T13:48:25.275Z,89.00
2017-12-23T13:53:10.610Z,89.60
2017-12-23T13:57:56.318Z,90.00
2017-12-23T14:02:42.287Z,89.90
2017-12-23T14:07:26.801Z,89.90
2017-12-23T14:12:11.094Z,90.10
2017-12-23T14:16:56.247Z,90.10
2017-12-23T14:21:40.544Z,90.10
2017-12-23T14:26:24.916Z,90.10
2017-12-23T14:31:09.379Z,90.20
2017-12-23T14:35:53.631Z,90.10
2017-12-23T14:40:37.925Z,90.10
2017-12-23T14:45:22.227Z,90.20
2017-12-23T14:50:07.670Z,90.20
2017-12-23T14:54:52.784Z,90.20
2017-12-23T14:59:37.044Z,90.20
2017-12-23T15:04:21.365Z,90.10
2017-12-23T15:09:07.761Z,90.00
2017-12-23T15:13:52.201Z,90.00
2017-12-23T15:18:36.507Z,89.90
2017-12-23T15:23:20.824Z,89.80
2017-12-23T15:28:06.775Z,89.90
2017-12-23T15:32:51.079Z,89.90
2017-12-23T15:37:35.334Z,89.70
2017-12-23T15:42:19.693Z,89.50
2017-12-23T15:47:07.286Z,89.00
2017-12-23T15:51:52.376Z,89.00
2017-12-23T15:56:36.700Z,89.00
2017-12-23T16:01:20.977Z,89.30
2017-12-23T16:06:07.228Z,89.80
2017-12-23T16:10:51.485Z,88.90
2017-12-23T16:15:35.747Z,88.70
2017-12-23T16:20:20.061Z,88.70
2017-12-23T16:25:06.254Z,88.70
2017-12-23T16:29:50.523Z,88.80
2017-12-23T16:34:34.932Z,88.80
2017-12-23T16:39:20.070Z,88.80
2017-12-23T16:44:06.643Z,88.80
2017-12-23T16:48:50.979Z,88.70
2017-12-23T16:53:35.220Z,88.70
2017-12-23T16:58:19.496Z,88.80
2017-12-23T17:03:08.624Z,89.00
2017-12-23T17:07:53.769Z,89.60
2017-12-23T17:12:38.168Z,88.90
2017-12-23T17:17:22.399Z,89.10
2017-12-23T17:22:06.911Z,89.10
2017-12-23T17:26:51.172Z,89.60
2017-12-23T17:31:35.484Z,89.60
2017-12-23T17:36:19.907Z,89.80
2017-12-23T17:41:07.906Z,89.80
2017-12-23T17:45:52.183Z,89.80
2017-12-23T17:50:36.528Z,89.70
2017-12-23T17:55:20.920Z,89.60
2017-12-23T18:00:07.071Z,89.40
2017-12-23T18:04:51.651Z,89.50
2017-12-23T18:09:36.020Z,89.40
2017-12-23T18:14:20.415Z,89.80
2017-12-23T18:19:05.989Z,89.80
2017-12-23T18:23:51.956Z,89.80
2017-12-23T18:28:36.371Z,89.80
2017-12-23T18:33:20.732Z,89.90
2017-12-23T18:38:06.823Z,89.90
2017-12-23T18:42:51.195Z,90.00
2017-12-23T18:47:35.556Z,90.00
2017-12-23T18:52:19.840Z,90.00
2017-12-23T18:57:08.283Z,89.90
2017-12-23T19:01:53.016Z,89.80
2017-12-23T19:06:38.649Z,89.50
2017-12-23T19:11:23.726Z,90.00
2017-12-23T19:16:12.655Z,89.20
2017-12-23T19:20:57.008Z,89.30
2017-12-23T19:25:42.184Z,89.10
2017-12-23T19:30:26.452Z,89.10
2017-12-23T19:35:10.731Z,89.20
2017-12-23T19:39:55.019Z,89.10
2017-12-23T19:44:39.467Z,89.30
2017-12-23T19:49:24.582Z,89.40
2017-12-23T19:54:08.859Z,89.30
2017-12-23T19:58:53.248Z,89.00
2017-12-23T20:03:37.459Z,89.00
2017-12-23T20:08:21.726Z,88.80
2017-12-23T20:13:07.017Z,88.80
2017-12-23T20:17:51.416Z,88.60
2017-12-23T20:22:35.644Z,88.70
2017-12-23T20:27:20.076Z,88.80
2017-12-23T20:32:06.409Z,88.60
2017-12-23T20:36:51.723Z,88.60
2017-12-23T20:41:36.042Z,88.60
2017-12-23T20:46:20.330Z,88.80
2017-12-23T20:51:07.966Z,88.50
2017-12-23T20:55:52.242Z,88.80
2017-12-23T21:00:37.356Z,89.10
2017-12-23T21:05:21.749Z,89.00
2017-12-23T21:10:06.881Z,89.50
2017-12-23T21:14:52.000Z,90.00
2017-12-23T21:19:36.267Z,89.90
2017-12-23T21:24:20.598Z,90.10
2017-12-23T21:29:06.403Z,90.10
2017-12-23T21:33:50.708Z,90.20
2017-12-23T21:38:35.021Z,90.10
2017-12-23T21:43:19.416Z,90.20
2017-12-23T21:48:08.371Z,90.40
2017-12-23T21:52:52.668Z,90.10
2017-12-23T21:57:37.005Z,90.00
2017-12-23T22:02:21.242Z,89.60
2017-12-23T22:07:07.746Z,90.20
2017-12-23T22:11:52.056Z,89.80
2017-12-23T22:16:36.328Z,89.60
2017-12-23T22:21:20.575Z,89.60
2017-12-23T22:26:08.810Z,89.60
2017-12-23T22:30:53.170Z,89.70
2017-12-23T22:35:37.558Z,89.70
2017-12-23T22:40:21.827Z,89.50
2017-12-23T22:45:07.199Z,90.20
2017-12-23T22:49:56.830Z,89.90
2017-12-23T22:54:41.156Z,89.70
2017-12-23T22:59:25.474Z,89.60
2017-12-23T23:04:10.582Z,89.30
2017-12-23T23:08:54.864Z,89.40
2017-12-23T23:13:39.191Z,89.60
2017-12-23T23:18:24.398Z,90.10
2017-12-23T23:23:08.667Z,90.10
2017-12-23T23:27:53.000Z,90.10
2017-12-23T23:32:37.228Z,90.20
2017-12-23T23:37:21.491Z,90.40
2017-12-23T23:42:07.933Z,90.50
2017-12-23T23:46:52.238Z,90.50
2017-12-23T23:51:36.923Z,90.50
2017-12-23T23:56:21.222Z,90.40
